Time;durP1;ratioP1;P1;durP2;ratioP2;P2;SDS_P1;SDS_P2;PMS_P1;PMS_P2;Temp;Humidity;BMP_temperature;BMP_pressure;BME280_temperature;BME280_humidity;BME280_pressure;Samples;Min_cycle;Max_cycle;Signal;HPM_P1;HPM_P2
2021/12/13 00:02:16;;;;;;;14.70;11.20;;;;;;;3.71;88.63;99636.63;6227597;23;20089;-82
2021/12/13 00:04:49;;;;;;;14.30;11.10;;;;;;;3.76;88.48;99642.19;6201013;23;20008;-83
2021/12/13 00:07:23;;;;;;;13.70;9.95;;;;;;;3.76;88.62;99636.06;6199993;23;20012;-82
2021/12/13 00:09:53;;;;;;;12.55;10.48;;;;;;;3.75;88.10;99632.63;6199955;23;20015;-83
2021/12/13 00:12:33;;;;;;;16.10;11.57;;;;;;;3.59;88.71;99606.44;6228160;23;20012;-83
2021/12/13 00:15:01;;;;;;;14.20;11.32;;;;;;;3.81;88.44;99638.97;6226453;23;20507;-82
2021/12/13 00:17:38;;;;;;;12.65;9.90;;;;;;;3.81;88.42;99646.91;6201001;23;20340;-82
2021/12/13 00:20:27;;;;;;;13.70;11.00;;;;;;;3.82;88.23;99639.81;6175938;23;20011;-83
2021/12/13 00:22:55;;;;;;;16.00;11.20;;;;;;;3.83;88.43;99647.53;6224911;23;19997;-83
2021/12/13 00:25:25;;;;;;;15.18;10.85;;;;;;;3.60;88.43;99615.19;6173474;23;20330;-83
2021/12/13 00:27:58;;;;;;;15.07;11.45;;;;;;;3.82;88.32;99653.00;6224214;23;20063;-83
2021/12/13 00:30:33;;;;;;;14.40;10.95;;;;;;;3.83;88.76;99650.16;6199661;23;20004;-83
2021/12/13 00:33:07;;;;;;;13.68;10.88;;;;;;;3.84;88.04;99656.28;6226041;23;20008;-83
2021/12/13 00:35:40;;;;;;;14.70;11.90;;;;;;;3.79;88.64;99657.66;6198954;23;20431;-83
2021/12/13 00:38:08;;;;;;;15.25;12.10;;;;;;;3.69;88.80;99632.56;6222243;23;20005;-83
2021/12/13 00:40:38;;;;;;;13.05;10.90;;;;;;;3.85;88.48;99661.38;6230007;23;20009;-80
2021/12/13 00:43:23;;;;;;;15.07;11.55;;;;;;;3.79;88.63;99654.19;6203396;23;20011;-81
2021/12/13 00:46:00;;;;;;;16.90;10.95;;;;;;;3.78;88.58;99661.28;6201754;23;20011;-81
2021/12/13 00:48:30;;;;;;;16.85;10.73;;;;;;;3.73;88.64;99645.16;6202235;23;20008;-81
2021/12/13 00:51:15;;;;;;;15.82;12.20;;;;;;;3.75;88.73;99652.94;6227176;23;20015;-80
2021/12/13 00:53:44;;;;;;;16.00;12.05;;;;;;;3.85;88.28;99676.38;6231468;23;20015;-83
2021/12/13 00:57:04;;;;;;;15.25;11.63;;;;;;;3.84;88.72;99667.66;6177658;23;20020;-83
2021/12/13 00:59:32;;;;;;;13.40;11.10;;;;;;;3.84;88.19;99670.31;6110193;23;20006;-83
2021/12/13 01:02:12;;;;;;;16.55;11.30;;;;;;;3.40;89.31;99595.66;6156560;23;20015;-83
2021/12/13 01:04:54;;;;;;;14.85;11.32;;;;;;;3.84;88.64;99672.13;6199526;23;20012;-83
2021/12/13 01:07:53;;;;;;;14.70;11.38;;;;;;;3.84;89.06;99683.50;6226316;23;20009;-83
2021/12/13 01:10:53;;;;;;;16.77;11.25;;;;;;;3.82;89.01;99677.59;6196004;23;20007;-83
2021/12/13 01:13:24;;;;;;;16.23;12.10;;;;;;;3.82;88.98;99680.22;6196326;23;20015;-84
2021/12/13 01:16:09;;;;;;;18.17;13.05;;;;;;;3.84;89.11;99688.78;6195746;23;20013;-83
2021/12/13 01:18:57;;;;;;;17.00;12.75;;;;;;;3.86;89.35;99689.41;6221765;23;20027;-84
2021/12/13 01:21:40;;;;;;;16.48;12.65;;;;;;;3.85;89.65;99693.03;6221410;23;20001;-83
2021/12/13 01:24:14;;;;;;;16.42;12.70;;;;;;;3.74;89.23;99669.75;6221976;23;19997;-83
2021/12/13 01:26:47;;;;;;;17.83;13.35;;;;;;;3.76;89.53;99673.03;6195001;23;20023;-83
2021/12/13 01:29:23;;;;;;;16.27;11.82;;;;;;;3.86;89.64;99693.88;6167672;23;20009;-83
2021/12/13 01:32:00;;;;;;;15.43;11.50;;;;;;;3.89;89.10;99691.66;6167689;23;20158;-83
2021/12/13 01:34:30;;;;;;;17.13;12.93;;;;;;;3.89;89.46;99694.31;6220628;23;20008;-83
2021/12/13 01:37:10;;;;;;;17.33;12.50;;;;;;;3.90;89.15;99705.69;6219110;23;20011;-83
2021/12/13 01:39:40;;;;;;;17.45;12.35;;;;;;;3.92;88.88;99703.69;6221520;23;20004;-84
2021/12/13 01:42:12;;;;;;;15.35;11.60;;;;;;;3.93;88.87;99706.16;6170020;23;20062;-83
2021/12/13 01:44:43;;;;;;;15.02;11.85;;;;;;;3.93;89.19;99714.09;6194736;23;20009;-83
2021/12/13 01:47:16;;;;;;;16.65;12.52;;;;;;;3.95;89.20;99711.25;6220130;23;20462;-84
2021/12/13 01:49:48;;;;;;;15.20;11.63;;;;;;;3.95;88.58;99714.72;6220143;23;20009;-83
2021/12/13 01:52:17;;;;;;;19.83;13.80;;;;;;;3.82;88.64;99696.06;6219387;23;20092;-85
2021/12/13 01:54:43;;;;;;;18.95;13.05;;;;;;;3.84;89.04;99696.72;6220709;23;20079;-84
2021/12/13 01:57:22;;;;;;;17.85;13.20;;;;;;;3.99;88.86;99715.16;6193253;23;20008;-85
2021/12/13 02:00:07;;;;;;;17.88;12.85;;;;;;;4.03;89.19;99716.41;6195082;23;20005;-85
2021/12/13 02:02:40;;;;;;;17.73;12.93;;;;;;;4.04;89.51;99712.78;6193327;23;20009;-84
2021/12/13 02:05:06;;;;;;;17.33;12.60;;;;;;;4.03;89.16;99725.16;6194313;23;20011;-84
2021/12/13 02:07:44;;;;;;;20.17;14.75;;;;;;;3.85;88.96;99687.75;6221793;23;20001;-83
2021/12/13 02:10:17;;;;;;;19.42;14.30;;;;;;;3.86;89.26;99683.31;6222863;23;20309;-82
2021/12/13 02:12:46;;;;;;;22.73;15.35;;;;;;;4.03;89.72;99714.59;6197526;23;20051;-81
2021/12/13 02:17:58;;;;;;;20.58;15.25;;;;;;;3.98;89.82;99703.78;6222457;23;20453;-82
2021/12/13 02:20:36;;;;;;;16.35;13.30;;;;;;;4.08;90.00;99720.16;6224061;23;20036;-82
2021/12/13 02:23:03;;;;;;;19.00;13.77;;;;;;;4.10;89.62;99712.03;6223056;23;20004;-83
2021/12/13 02:25:33;;;;;;;22.27;14.75;;;;;;;4.08;89.54;99711.41;6195638;23;20058;-83
2021/12/13 02:28:12;;;;;;;17.85;13.13;;;;;;;4.07;89.46;99707.94;6195634;23;20011;-83
2021/12/13 02:30:45;;;;;;;22.30;14.50;;;;;;;3.98;89.63;99689.75;6221912;23;20471;-83
2021/12/13 02:33:16;;;;;;;19.08;14.00;;;;;;;4.09;89.41;99710.38;6194440;23;20116;-83
2021/12/13 02:35:46;;;;;;;18.08;13.77;;;;;;;3.91;89.47;99673.81;6221243;23;20085;-83
2021/12/13 02:38:13;;;;;;;20.25;14.75;;;;;;;4.11;89.82;99708.38;6220134;23;20493;-82
2021/12/13 02:40:40;;;;;;;20.27;14.30;;;;;;;4.08;89.45;99701.66;6168734;23;20039;-83
2021/12/13 02:43:11;;;;;;;18.70;13.90;;;;;;;4.12;89.55;99702.09;6168435;23;20435;-85
2021/12/13 02:45:44;;;;;;;23.30;14.98;;;;;;;4.11;89.03;99703.91;6175022;23;20008;-84
2021/12/13 02:48:19;;;;;;;20.25;14.25;;;;;;;4.13;89.10;99712.47;6203048;23;20106;-84
2021/12/13 02:51:26;;;;;;;20.83;13.85;;;;;;;3.88;89.49;99674.22;6230092;23;20004;-84
2021/12/13 02:54:03;;;;;;;18.50;13.43;;;;;;;4.01;89.17;99700.78;6187951;23;20076;-84
2021/12/13 02:56:35;;;;;;;19.90;14.20;;;;;;;3.70;89.62;99650.84;6227067;23;20005;-84
2021/12/13 02:59:04;;;;;;;18.83;14.43;;;;;;;4.17;89.60;99729.59;6200037;23;20007;-84
2021/12/13 03:01:38;;;;;;;20.98;14.18;;;;;;;4.18;89.77;99722.50;6200485;23;20017;-84
2021/12/13 03:04:07;;;;;;;18.55;13.50;;;;;;;4.18;89.83;99727.78;6199561;23;19997;-83
2021/12/13 03:06:39;;;;;;;20.88;14.60;;;;;;;4.14;90.17;99722.06;6199533;23;20061;-83
2021/12/13 03:09:09;;;;;;;23.83;15.68;;;;;;;4.15;89.55;99725.53;6199681;23;20051;-83
2021/12/13 03:11:35;;;;;;;20.48;14.60;;;;;;;4.20;89.52;99731.88;6202014;23;20011;-83
2021/12/13 03:14:11;;;;;;;23.23;16.35;;;;;;;3.87;90.11;99677.84;6200893;23;20020;-83
2021/12/13 03:16:48;;;;;;;20.60;15.88;;;;;;;4.19;90.32;99727.59;6228649;23;20007;-83
2021/12/13 03:19:47;;;;;;;19.13;13.98;;;;;;;4.20;90.09;99733.69;6225722;23;20043;-82
2021/12/13 03:23:03;;;;;;;22.88;15.15;;;;;;;4.18;90.27;99725.13;6225538;23;20004;-83
2021/12/13 03:25:58;;;;;;;21.83;14.93;;;;;;;4.02;90.04;99701.59;6198392;23;20005;-83
2021/12/13 03:28:39;;;;;;;25.02;16.15;;;;;;;4.17;90.34;99734.88;6224111;23;20004;-82
2021/12/13 03:31:06;;;;;;;24.17;15.77;;;;;;;4.06;90.28;99719.53;6196296;23;20027;-83
2021/12/13 03:33:34;;;;;;;18.48;13.63;;;;;;;4.18;90.11;99725.97;6198186;23;20490;-83
2021/12/13 03:36:05;;;;;;;21.00;15.85;;;;;;;4.00;90.17;99696.47;6202062;23;20000;-82
2021/12/13 03:38:38;;;;;;;21.58;14.75;;;;;;;4.09;90.09;99716.50;6202490;23;20008;-83
2021/12/13 03:41:08;;;;;;;18.58;13.30;;;;;;;4.17;90.01;99734.88;6203750;23;20012;-82
2021/12/13 03:43:47;;;;;;;19.77;14.50;;;;;;;3.87;90.25;99675.19;6226807;23;20056;-83
2021/12/13 03:46:16;;;;;;;20.08;14.98;;;;;;;4.19;90.22;99732.06;6172352;23;20012;-83
2021/12/13 03:48:44;;;;;;;19.73;14.93;;;;;;;4.22;90.22;99734.31;6193032;23;20596;-83
2021/12/13 03:51:15;;;;;;;20.20;14.10;;;;;;;4.23;90.55;99736.78;6218555;23;20012;-83
2021/12/13 03:53:46;;;;;;;19.25;14.32;;;;;;;4.24;90.29;99740.22;6193771;23;20058;-83
2021/12/13 03:56:16;;;;;;;21.23;14.30;;;;;;;3.98;89.92;99700.31;6194039;23;20020;-83
2021/12/13 03:58:50;;;;;;;21.83;14.57;;;;;;;4.16;90.15;99724.50;6221249;23;20008;-83
2021/12/13 04:01:17;;;;;;;19.13;13.43;;;;;;;4.25;89.79;99739.25;6195692;23;20378;-83
2021/12/13 04:03:44;;;;;;;20.33;14.15;;;;;;;4.29;90.46;99745.78;6219696;23;20004;-83
2021/12/13 04:06:14;;;;;;;23.92;16.05;;;;;;;4.28;90.03;99739.69;6196018;23;20111;-83
2021/12/13 04:08:40;;;;;;;18.33;13.30;;;;;;;4.31;89.76;99738.50;6198342;23;20071;-83
2021/12/13 04:11:10;;;;;;;23.48;15.02;;;;;;;4.30;90.10;99745.59;6195965;23;20020;-83
2021/12/13 04:13:42;;;;;;;18.90;14.27;;;;;;;4.29;90.45;99738.69;6194160;23;20008;-83
2021/12/13 04:16:31;;;;;;;25.52;15.65;;;;;;;4.21;90.09;99725.59;6220978;23;20004;-84
2021/12/13 04:19:09;;;;;;;21.67;15.57;;;;;;;4.31;91.00;99741.13;6218202;23;20503;-83
2021/12/13 04:21:49;;;;;;;20.25;15.18;;;;;;;4.21;90.61;99722.94;6218786;23;20012;-84
2021/12/13 04:24:19;;;;;;;23.75;15.88;;;;;;;4.35;91.03;99731.81;6217842;23;20001;-85
2021/12/13 04:26:53;;;;;;;23.45;15.38;;;;;;;4.35;91.16;99737.94;6218984;23;20062;-84
2021/12/13 04:29:28;;;;;;;23.52;14.82;;;;;;;4.30;91.32;99734.22;6217873;23;20004;-84
2021/12/13 04:31:54;;;;;;;20.17;14.82;;;;;;;4.31;91.26;99741.97;6192803;23;20015;-84
2021/12/13 04:34:25;;;;;;;22.65;15.05;;;;;;;4.39;91.47;99752.41;6191673;23;20008;-83
2021/12/13 04:36:54;;;;;;;22.10;14.45;;;;;;;4.39;91.35;99762.19;6219041;23;20420;-82
2021/12/13 04:39:35;;;;;;;21.90;13.70;;;;;;;4.39;91.41;99755.06;6192936;23;20008;-82
2021/12/13 04:42:05;;;;;;;21.77;13.77;;;;;;;4.42;90.93;99759.16;6218801;23;20004;-83
2021/12/13 04:44:45;;;;;;;19.13;14.07;;;;;;;4.41;91.43;99755.69;6193657;23;20019;-83
2021/12/13 04:47:18;;;;;;;20.67;14.00;;;;;;;4.42;91.21;99759.97;6192463;23;20015;-83
2021/12/13 04:49:48;;;;;;;20.27;14.18;;;;;;;4.43;90.74;99755.53;6219272;23;20378;-84
2021/12/13 04:52:17;;;;;;;19.95;13.25;;;;;;;4.45;91.57;99761.44;6197493;23;20013;-83
2021/12/13 04:54:48;;;;;;;19.80;13.35;;;;;;;4.47;90.99;99770.81;6197435;23;20028;-83
2021/12/13 04:57:15;;;;;;;18.95;12.80;;;;;;;4.30;91.16;99739.50;6227391;23;20005;-84
2021/12/13 04:59:41;;;;;;;19.42;14.07;;;;;;;4.40;90.77;99758.53;6225017;23;20032;-85
2021/12/13 05:02:10;;;;;;;19.48;13.02;;;;;;;4.03;90.45;99703.22;6235129;23;19993;-83
2021/12/13 05:04:36;;;;;;;18.45;14.25;;;;;;;3.99;90.60;99694.84;6236932;23;20019;-83
2021/12/13 05:07:04;;;;;;;20.15;14.00;;;;;;;4.33;90.74;99742.59;6211962;23;20012;-84
2021/12/13 05:09:31;;;;;;;19.20;13.68;;;;;;;4.56;90.63;99777.59;6212223;23;20008;-83
2021/12/13 05:12:14;;;;;;;19.20;13.68;;;;;;;4.08;89.99;99700.84;6212855;23;19996;-84
2021/12/13 05:14:42;;;;;;;20.45;13.80;;;;;;;4.57;90.14;99781.06;6209143;23;20008;-84
2021/12/13 05:17:20;;;;;;;19.27;14.23;;;;;;;4.20;90.10;99734.50;6226811;23;20031;-84
2021/12/13 05:19:57;;;;;;;19.90;14.55;;;;;;;4.60;90.54;99785.16;6199821;23;20004;-83
2021/12/13 05:22:23;;;;;;;19.25;14.02;;;;;;;4.08;90.01;99709.59;6201996;23;20013;-85
2021/12/13 05:25:01;;;;;;;17.88;12.60;;;;;;;4.60;89.40;99787.81;6200690;23;20211;-84
2021/12/13 05:27:35;;;;;;;20.77;15.38;;;;;;;4.60;89.77;99786.00;6204173;23;20031;-84
2021/12/13 05:30:10;;;;;;;19.70;14.18;;;;;;;4.61;89.92;99789.47;6209444;23;20004;-84
2021/12/13 05:32:40;;;;;;;16.08;12.82;;;;;;;4.30;90.07;99737.66;6206672;23;20019;-84
2021/12/13 05:35:18;;;;;;;20.25;13.80;;;;;;;4.30;90.11;99737.66;6233434;23;20005;-84
2021/12/13 05:38:07;;;;;;;20.55;13.88;;;;;;;4.58;89.72;99774.78;6230220;23;20300;-85
2021/12/13 05:40:42;;;;;;;22.77;15.30;;;;;;;4.51;90.34;99769.44;6207286;23;19997;-82
2021/12/13 05:43:18;;;;;;;24.77;15.77;;;;;;;4.65;89.96;99783.63;6205402;23;20000;-83
2021/12/13 05:45:50;;;;;;;21.42;14.80;;;;;;;4.63;89.97;99779.53;6196558;23;20087;-83
2021/12/13 05:48:36;;;;;;;17.55;12.85;;;;;;;4.66;90.55;99797.63;6222543;23;20087;-81
2021/12/13 05:51:19;;;;;;;20.08;13.55;;;;;;;4.57;89.88;99787.19;6196873;23;20040;-84
2021/12/13 05:53:51;;;;;;;19.83;13.63;;;;;;;4.60;89.75;99798.38;6199171;23;20001;-82
2021/12/13 05:56:19;;;;;;;19.38;13.90;;;;;;;4.67;90.25;99813.34;6197042;23;20016;-84
2021/12/13 05:58:50;;;;;;;17.83;13.00;;;;;;;4.67;89.62;99823.91;6221150;23;20007;-83
2021/12/13 06:01:15;;;;;;;19.25;12.68;;;;;;;4.67;89.99;99823.09;6197136;23;20087;-83
2021/12/13 06:03:49;;;;;;;17.17;13.27;;;;;;;4.49;89.40;99795.25;6196465;23;20001;-82
2021/12/13 06:06:18;;;;;;;17.50;12.45;;;;;;;4.69;89.54;99826.34;6196779;23;20050;-83
2021/12/13 06:08:49;;;;;;;18.58;12.68;;;;;;;4.69;89.53;99826.34;6198428;23;20014;-83
2021/12/13 06:11:32;;;;;;;17.88;13.10;;;;;;;4.70;90.14;99823.50;6225244;23;20028;-84
2021/12/13 06:14:14;;;;;;;21.90;13.65;;;;;;;4.70;89.69;99823.50;6222786;23;20402;-81
2021/12/13 06:16:42;;;;;;;21.38;14.52;;;;;;;4.72;90.29;99828.63;6200584;23;20036;-82
2021/12/13 06:19:15;;;;;;;20.60;13.52;;;;;;;4.72;89.79;99816.22;6198303;23;20012;-82
2021/12/13 06:21:40;;;;;;;22.85;13.80;;;;;;;4.75;89.91;99830.88;6196503;23;20008;-82
2021/12/13 06:24:08;;;;;;;21.95;15.77;;;;;;;4.53;89.82;99798.31;6195463;23;20039;-84
2021/12/13 06:26:34;;;;;;;20.80;14.25;;;;;;;4.73;90.05;99825.81;6168889;23;20015;-84
2021/12/13 06:29:04;;;;;;;22.48;15.07;;;;;;;4.41;89.87;99773.38;6172177;23;20009;-82
2021/12/13 06:31:37;;;;;;;19.73;13.50;;;;;;;4.74;89.97;99831.91;6194111;23;20514;-82
2021/12/13 06:34:06;;;;;;;19.83;14.10;;;;;;;4.56;90.42;99804.03;6219461;23;20011;-81
2021/12/13 06:36:45;;;;;;;20.02;13.70;;;;;;;4.35;90.03;99782.84;6226981;23;20008;-82
2021/12/13 06:39:16;;;;;;;21.08;13.57;;;;;;;4.50;90.32;99790.75;6225125;23;20079;-82
2021/12/13 06:41:46;;;;;;;21.98;13.93;;;;;;;4.64;89.98;99811.03;6222348;23;20006;-83
2021/12/13 06:44:24;;;;;;;26.40;15.05;;;;;;;4.68;89.62;99822.06;6231838;23;19992;-83
2021/12/13 06:47:01;;;;;;;19.15;12.63;;;;;;;4.34;89.57;99773.31;6237295;23;20004;-82
2021/12/13 06:49:44;;;;;;;18.70;13.18;;;;;;;4.73;89.80;99835.53;6229120;23;20036;-81
2021/12/13 06:52:12;;;;;;;20.90;14.40;;;;;;;4.75;89.64;99844.13;6228388;23;20024;-82
2021/12/13 06:54:45;;;;;;;18.65;12.88;;;;;;;4.27;89.43;99761.84;6230506;23;20006;-83
2021/12/13 07:00:34;;;;;;;21.77;13.63;;;;;;;4.59;89.68;99823.19;6181144;23;20063;-82
2021/12/13 07:03:06;;;;;;;21.33;13.88;;;;;;;4.74;89.52;99855.72;6225560;23;20035;-85
2021/12/13 07:05:48;;;;;;;23.00;13.75;;;;;;;4.61;89.49;99839.69;6193350;23;20009;-86
2021/12/13 07:08:22;;;;;;;20.20;13.05;;;;;;;4.41;89.97;99815.66;6186128;23;20010;-86
2021/12/13 07:10:56;;;;;;;20.73;14.10;;;;;;;4.72;89.82;99858.53;6235534;23;20052;-86
2021/12/13 07:13:36;;;;;;;22.98;13.70;;;;;;;4.74;89.78;99864.44;6236789;23;20000;-86
2021/12/13 07:16:25;;;;;;;23.13;15.52;;;;;;;4.74;89.71;99874.22;6211897;23;19995;-86
2021/12/13 07:19:00;;;;;;;23.58;14.20;;;;;;;4.76;89.94;99882.78;6223075;23;20013;-85
2021/12/13 07:21:34;;;;;;;23.33;13.52;;;;;;;4.74;89.77;99879.50;6197874;23;20004;-87
2021/12/13 07:24:08;;;;;;;20.48;13.38;;;;;;;4.76;89.55;99891.53;6197774;23;20001;-84
2021/12/13 07:26:55;;;;;;;20.80;14.18;;;;;;;4.76;90.05;99886.22;6200475;23;20005;-84
2021/12/13 07:29:26;;;;;;;20.88;14.77;;;;;;;4.75;89.47;99883.78;6201751;23;20000;-85
2021/12/13 07:32:27;;;;;;;22.48;14.82;;;;;;;4.74;89.69;99885.59;6199737;23;20004;-85
2021/12/13 07:35:05;;;;;;;22.33;14.23;;;;;;;4.75;89.49;99892.53;6200198;23;20043;-84
2021/12/13 07:37:41;;;;;;;23.65;14.05;;;;;;;4.74;89.78;99892.72;6200228;23;20005;-85
2021/12/13 07:40:33;;;;;;;21.98;14.80;;;;;;;4.71;89.62;99901.84;6200666;23;20004;-84
2021/12/13 07:43:34;;;;;;;22.50;14.25;;;;;;;4.71;90.14;99903.66;6200057;23;20005;-84
2021/12/13 07:46:02;;;;;;;21.52;14.55;;;;;;;4.72;90.00;99903.47;6227053;23;20008;-85
2021/12/13 07:48:33;;;;;;;20.08;13.80;;;;;;;4.65;90.00;99888.56;6199667;23;20055;-85
2021/12/13 07:51:19;;;;;;;22.55;14.48;;;;;;;4.67;90.55;99897.13;6200143;23;20021;-85
2021/12/13 07:53:50;;;;;;;;;;;;;;;4.74;90.44;99913.88;6201940;23;20339;-85
2021/12/13 07:56:23;;;;;;;24.00;15.82;;;;;;;4.41;90.50;99856.13;6227037;23;20469;-84
2021/12/13 07:58:57;;;;;;;21.42;14.48;;;;;;;4.76;90.98;99914.53;6226159;23;20422;-85
2021/12/13 08:01:26;;;;;;;18.45;13.07;;;;;;;4.30;90.35;99840.72;6203491;23;20023;-85
2021/12/13 08:04:07;;;;;;;21.13;14.02;;;;;;;4.78;90.86;99913.34;6226168;23;20088;-85
2021/12/13 08:06:39;;;;;;;20.77;13.82;;;;;;;4.73;90.50;99909.59;6196451;23;20012;-84
2021/12/13 08:09:11;;;;;;;19.83;13.18;;;;;;;4.39;90.09;99849.41;6226212;23;20001;-85
2021/12/13 08:11:46;;;;;;;22.63;14.25;;;;;;;4.37;89.65;99841.63;6206337;23;20004;-85
2021/12/13 08:14:13;;;;;;;18.48;14.43;;;;;;;4.35;89.76;99842.81;6209516;23;20039;-84
2021/12/13 08:16:42;;;;;;;18.90;13.07;;;;;;;4.83;90.05;99926.81;6208973;23;20012;-84
2021/12/13 08:19:16;;;;;;;17.85;12.10;;;;;;;4.65;89.78;99884.09;6234120;23;20042;-85
2021/12/13 08:21:58;;;;;;;18.38;12.98;;;;;;;4.49;89.94;99866.59;6206364;23;20004;-84
2021/12/13 08:24:41;;;;;;;22.73;13.60;;;;;;;4.44;90.29;99868.16;6233611;23;20095;-85
2021/12/13 08:27:16;;;;;;;18.00;12.05;;;;;;;4.69;90.17;99893.28;6205913;23;20035;-84
2021/12/13 08:29:43;;;;;;;17.52;11.90;;;;;;;4.89;90.51;99927.91;6204176;23;20095;-84
2021/12/13 08:32:15;;;;;;;17.30;12.35;;;;;;;4.51;90.52;99863.78;6199968;23;20004;-83
2021/12/13 08:34:54;;;;;;;18.55;13.25;;;;;;;4.94;90.59;99928.16;6198873;23;20013;-84
2021/12/13 08:37:33;;;;;;;18.42;12.52;;;;;;;4.84;90.43;99917.88;6175135;23;20024;-85
2021/12/13 08:40:12;;;;;;;19.08;12.52;;;;;;;4.88;90.31;99907.75;6229710;23;20005;-85
2021/12/13 08:42:46;;;;;;;17.58;12.90;;;;;;;4.88;90.90;99913.84;6229039;23;20016;-85
2021/12/13 08:45:21;;;;;;;22.00;13.95;;;;;;;5.01;91.09;99926.41;6202143;23;20458;-85
2021/12/13 08:47:55;;;;;;;18.90;12.65;;;;;;;4.46;91.16;99850.28;6230424;23;20008;-85
2021/12/13 08:50:25;;;;;;;17.25;12.02;;;;;;;5.03;91.20;99925.22;6202112;23;20013;-84
2021/12/13 08:52:58;;;;;;;17.50;11.98;;;;;;;4.65;90.89;99864.75;6203682;23;20043;-84
2021/12/13 08:55:35;;;;;;;17.92;12.63;;;;;;;4.65;90.63;99873.50;6229112;23;20043;-85
2021/12/13 08:58:14;;;;;;;17.58;13.48;;;;;;;5.07;90.29;99929.13;6203858;23;20009;-84
2021/12/13 09:00:48;;;;;;;20.45;14.05;;;;;;;5.10;90.81;99939.34;6229314;23;20004;-84
2021/12/13 09:03:22;;;;;;;17.67;13.05;;;;;;;5.11;90.62;99940.97;6203621;23;19996;-84
2021/12/13 09:06:03;;;;;;;16.77;11.60;;;;;;;5.12;90.28;99952.38;6231004;23;20001;-85
2021/12/13 09:08:57;;;;;;;25.05;14.38;;;;;;;5.14;90.16;99955.66;6231068;23;20011;-85
2021/12/13 09:11:37;;;;;;;18.15;13.60;;;;;;;4.76;90.70;99890.72;6209178;23;20004;-84
2021/12/13 09:14:14;;;;;;;20.15;13.95;;;;;;;5.17;90.51;99968.53;6207638;23;20009;-85
2021/12/13 09:17:07;;;;;;;22.13;14.18;;;;;;;5.19;90.89;99963.88;6235797;23;19988;-83
2021/12/13 09:19:41;;;;;;;21.25;14.73;;;;;;;4.93;90.72;99915.94;6236455;23;19997;-83
2021/12/13 09:22:20;;;;;;;24.23;15.98;;;;;;;4.50;90.58;99851.53;6235414;23;20000;-86
2021/12/13 09:25:18;;;;;;;23.50;15.05;;;;;;;4.89;91.10;99901.47;6204207;23;20520;-85
2021/12/13 09:27:54;;;;;;;22.13;13.98;;;;;;;4.66;90.63;99864.56;6179707;23;20005;-84
2021/12/13 09:30:33;;;;;;;19.10;13.05;;;;;;;5.30;90.64;99955.44;6194073;23;19997;-85
2021/12/13 09:33:28;;;;;;;18.70;11.98;;;;;;;4.95;90.93;99903.34;6232782;23;20011;-86
2021/12/13 09:36:07;;;;;;;15.18;10.88;;;;;;;5.37;91.17;99961.63;6209977;23;20000;-86
2021/12/13 09:39:00;;;;;;;17.38;11.30;;;;;;;4.88;90.99;99889.22;6237128;23;20427;-86
2021/12/13 09:41:28;;;;;;;15.77;10.98;;;;;;;5.43;90.74;99968.00;6238145;23;20028;-85
2021/12/13 09:44:10;;;;;;;16.90;10.55;;;;;;;4.92;90.67;99890.47;6210308;23;19996;-86
2021/12/13 09:46:38;;;;;;;19.80;11.80;;;;;;;5.50;90.26;99968.88;6237565;23;20005;-85
2021/12/13 09:49:59;;;;;;;15.95;11.15;;;;;;;5.37;91.01;99951.03;6236609;23;20032;-85
2021/12/13 09:52:24;;;;;;;20.50;11.93;;;;;;;5.54;90.72;99964.84;6177154;23;20008;-85
2021/12/13 09:55:10;;;;;;;16.33;11.23;;;;;;;5.20;90.75;99902.81;6214755;23;20000;-86
2021/12/13 09:57:52;;;;;;;17.63;11.32;;;;;;;5.59;90.65;99959.81;6212859;23;19989;-86
2021/12/13 10:00:28;;;;;;;16.35;11.02;;;;;;;5.33;90.69;99923.28;6238624;23;20015;-85
2021/12/13 10:03:01;;;;;;;16.67;10.57;;;;;;;5.46;90.09;99934.00;6238915;23;20051;-86
2021/12/13 10:05:39;;;;;;;13.48;9.73;;;;;;;5.05;89.78;99867.66;6213674;23;20000;-85
2021/12/13 10:08:10;;;;;;;17.40;10.20;;;;;;;5.65;90.29;99954.59;6215460;23;20035;-84
2021/12/13 10:10:53;;;;;;;16.55;11.55;;;;;;;5.15;90.49;99862.06;6240534;23;20000;-85
2021/12/13 10:13:25;;;;;;;20.85;12.77;;;;;;;5.32;90.35;99900.50;6215347;23;20008;-84
2021/12/13 10:15:55;;;;;;;16.58;11.27;;;;;;;5.73;90.74;99958.91;6241754;23;20060;-85
2021/12/13 10:18:27;;;;;;;17.63;12.40;;;;;;;5.37;90.34;99898.09;6215224;23;20004;-85
2021/12/13 10:21:21;;;;;;;18.88;12.35;;;;;;;5.31;89.96;99877.66;6238551;23;19989;-84
2021/12/13 10:23:53;;;;;;;18.77;12.82;;;;;;;5.07;90.34;99839.16;6238765;23;19992;-85
2021/12/13 10:26:20;;;;;;;18.20;12.15;;;;;;;5.36;90.21;99891.16;6212683;23;20008;-86
2021/12/13 10:28:54;;;;;;;19.30;13.25;;;;;;;5.75;89.91;99938.34;6237623;23;20009;-86
2021/12/13 10:31:34;;;;;;;19.65;13.68;;;;;;;5.77;89.85;99942.44;6188566;23;20066;-85
2021/12/13 10:34:04;;;;;;;20.63;14.50;;;;;;;5.03;90.56;99821.22;6212905;23;20013;-85
2021/12/13 10:36:29;;;;;;;17.77;12.43;;;;;;;5.40;90.58;99865.94;6237604;23;20010;-85
2021/12/13 10:39:04;;;;;;;20.92;13.57;;;;;;;5.49;90.42;99885.97;6212675;23;20009;-85
2021/12/13 10:41:44;;;;;;;19.80;12.70;;;;;;;5.79;90.17;99931.66;6239596;23;20012;-85
2021/12/13 10:44:14;;;;;;;17.58;12.35;;;;;;;5.47;89.79;99884.53;6238607;23;20027;-86
2021/12/13 10:46:44;;;;;;;19.98;13.45;;;;;;;5.45;89.70;99890.03;6237856;23;20000;-84
2021/12/13 10:49:16;;;;;;;15.23;11.48;;;;;;;5.45;90.40;99879.44;6238212;22;20035;-85
2021/12/13 10:51:54;;;;;;;16.10;11.73;;;;;;;5.47;89.76;99884.53;6238178;23;20004;-84
2021/12/13 10:54:23;;;;;;;17.85;11.80;;;;;;;5.87;89.96;99943.00;6237984;23;20042;-85
2021/12/13 10:56:54;;;;;;;16.75;11.95;;;;;;;5.70;90.23;99914.28;6236709;23;20009;-85
2021/12/13 10:59:22;;;;;;;18.58;12.35;;;;;;;5.53;90.04;99892.53;6213929;23;20016;-85
2021/12/13 11:01:53;;;;;;;19.33;12.00;;;;;;;5.31;90.46;99867.06;6190838;23;20012;-85
2021/12/13 11:04:23;;;;;;;18.88;12.43;;;;;;;5.39;90.24;99874.91;6239942;23;20028;-85
2021/12/13 11:06:50;;;;;;;21.65;14.30;;;;;;;5.34;90.12;99869.34;6236734;23;19989;-86
2021/12/13 11:09:20;;;;;;;21.67;14.18;;;;;;;5.41;90.31;99861.47;6211763;22;19999;-85
2021/12/13 11:11:55;;;;;;;25.80;14.63;;;;;;;5.57;89.70;99899.09;6196989;23;20005;-85
2021/12/13 11:14:27;;;;;;;21.80;14.15;;;;;;;5.77;89.86;99931.84;6228927;23;19996;-86
2021/12/13 11:17:05;;;;;;;23.58;14.38;;;;;;;5.02;89.71;99804.50;6207658;23;20011;-85
2021/12/13 11:19:35;;;;;;;24.73;15.35;;;;;;;5.56;90.43;99886.03;6198512;23;20011;-85
2021/12/13 11:22:08;;;;;;;24.23;15.68;;;;;;;5.78;90.94;99919.44;6190674;23;20016;-89
2021/12/13 11:24:37;;;;;;;28.42;16.95;;;;;;;5.96;90.48;99944.47;6212512;23;20078;-85
2021/12/13 11:27:10;;;;;;;25.60;16.13;;;;;;;5.96;90.68;99952.41;6194229;23;20008;-86
2021/12/13 11:29:38;;;;;;;22.50;14.95;;;;;;;5.97;90.25;99953.25;6197173;23;20020;-85
2021/12/13 11:32:28;;;;;;;23.17;15.68;;;;;;;5.96;90.11;99944.47;6220183;23;19996;-86
2021/12/13 11:35:07;;;;;;;24.17;15.02;;;;;;;5.83;90.18;99931.09;6193566;23;20028;-85
2021/12/13 11:38:10;;;;;;;22.95;14.25;;;;;;;5.95;89.41;99961.41;6194664;23;20008;-85
2021/12/13 11:41:13;;;;;;;22.88;15.10;;;;;;;5.95;90.17;99961.41;6221176;23;19996;-85
2021/12/13 11:44:03;;;;;;;22.08;13.90;;;;;;;5.73;90.15;99914.72;6178489;23;20056;-86
2021/12/13 11:46:50;;;;;;;19.08;13.80;;;;;;;5.96;89.50;99952.41;6201539;23;20001;-86
2021/12/13 11:49:38;;;;;;;22.75;14.05;;;;;;;5.78;89.49;99922.91;6201697;23;20087;-86
2021/12/13 11:52:04;;;;;;;21.00;14.82;;;;;;;5.96;89.85;99948.97;6200687;23;20042;-86
2021/12/13 11:54:54;;;;;;;21.77;14.65;;;;;;;5.96;89.80;99948.97;6200860;23;20024;-85
2021/12/13 11:58:01;;;;;;;24.15;14.25;;;;;;;5.94;89.98;99940.41;6200113;23;20356;-85
2021/12/13 12:00:42;;;;;;;21.55;13.43;;;;;;;5.98;89.77;99945.09;6133517;23;20367;-85
2021/12/13 12:03:22;;;;;;;24.48;14.93;;;;;;;5.97;89.82;99948.78;6202039;23;20371;-86
2021/12/13 12:06:26;;;;;;;20.98;13.52;;;;;;;5.97;89.67;99951.44;6202341;23;20370;-85
2021/12/13 12:09:22;;;;;;;21.27;14.45;;;;;;;5.98;89.46;99945.09;6200428;23;20394;-87
2021/12/13 12:12:16;;;;;;;19.58;13.57;;;;;;;5.98;90.23;99946.94;6201750;23;20461;-86
2021/12/13 12:14:42;;;;;;;20.48;13.38;;;;;;;5.97;89.55;99943.47;6201908;23;20005;-86